Time;durP1;ratioP1;P1;durP2;ratioP2;P2;SDS_P1;SDS_P2;PMS_P1;PMS_P2;Temp;Humidity;BMP_temperature;BMP_pressure;BME280_temperature;BME280_humidity;BME280_pressure;Samples;Min_cycle;Max_cycle;Signal;HPM_P1;HPM_P2
2021/06/27 00:00:23;;;;;;;1.45;1.35;;;23.60;66.50;;;;;;5095445;28;20020;-74
2021/06/27 00:02:49;;;;;;;2.42;1.63;;;23.50;67.50;;;;;;5095499;28;20023;-74
2021/06/27 00:05:18;;;;;;;1.80;1.70;;;23.60;66.60;;;;;;5095387;28;20093;-74
2021/06/27 00:07:44;;;;;;;1.83;1.73;;;23.50;66.70;;;;;;5095402;28;20085;-73
2021/06/27 00:10:15;;;;;;;1.77;1.40;;;23.50;66.80;;;;;;5094976;28;20119;-74
2021/06/27 00:12:41;;;;;;;5.22;1.73;;;23.50;67.00;;;;;;5077098;28;20031;-74
2021/06/27 00:15:14;;;;;;;1.52;1.42;;;23.50;66.90;;;;;;5095435;28;20032;-74
2021/06/27 00:17:41;;;;;;;2.13;1.65;;;23.50;66.80;;;;;;5076635;28;20494;-74
2021/06/27 00:20:10;;;;;;;1.65;1.52;;;23.60;66.60;;;;;;5094983;28;20024;-74
2021/06/27 00:22:36;;;;;;;2.92;1.42;;;23.60;66.30;;;;;;5095200;28;20031;-73
2021/06/27 00:25:05;;;;;;;1.45;1.35;;;23.60;66.10;;;;;;5094850;28;20024;-74
2021/06/27 00:27:31;;;;;;;1.88;1.73;;;23.60;66.10;;;;;;5094807;28;20025;-74
2021/06/27 00:29:57;;;;;;;1.70;1.60;;;23.70;66.00;;;;;;5094727;28;20532;-74
2021/06/27 00:32:23;;;;;;;1.40;1.30;;;23.70;66.00;;;;;;5094712;28;20103;-74
2021/06/27 00:34:48;;;;;;;3.35;1.45;;;23.70;65.80;;;;;;5094818;28;20024;-74
2021/06/27 00:37:15;;;;;;;2.85;1.30;;;23.70;65.30;;;;;;5094217;28;20036;-74
2021/06/27 00:39:41;;;;;;;2.97;1.35;;;23.70;64.90;;;;;;5094724;28;20042;-74
2021/06/27 00:42:07;;;;;;;1.90;1.73;;;23.70;65.60;;;;;;5076523;28;20052;-73
2021/06/27 00:44:33;;;;;;;2.50;1.30;;;23.70;65.70;;;;;;5076387;28;20081;-74
2021/06/27 00:46:59;;;;;;;2.47;1.50;;;23.60;65.90;;;;;;5094653;28;20020;-74
2021/06/27 00:49:26;;;;;;;2.05;1.23;;;23.50;66.00;;;;;;5094626;28;20039;-74
2021/06/27 00:51:51;;;;;;;1.52;1.42;;;23.50;66.10;;;;;;5094198;28;20077;-74
2021/06/27 00:54:17;;;;;;;1.17;1.13;;;23.50;66.00;;;;;;5094397;28;20035;-74
2021/06/27 00:56:46;;;;;;;3.20;1.52;;;23.50;65.30;;;;;;5094375;28;20095;-74
2021/06/27 00:59:13;;;;;;;1.38;1.27;;;23.60;65.10;;;;;;5076138;28;20082;-74
2021/06/27 01:01:39;;;;;;;3.00;1.30;;;23.60;64.90;;;;;;5094321;28;20462;-74
2021/06/27 01:04:04;;;;;;;1.70;1.60;;;23.60;64.50;;;;;;5094328;28;20024;-74
2021/06/27 01:06:30;;;;;;;1.13;1.02;;;23.60;64.30;;;;;;5094373;28;20046;-73
2021/06/27 01:08:56;;;;;;;1.27;1.20;;;23.60;64.10;;;;;;5094082;28;20481;-74
2021/06/27 01:11:22;;;;;;;4.43;1.33;;;23.60;63.60;;;;;;5093844;28;20492;-74
2021/06/27 01:13:48;;;;;;;1.95;1.20;;;23.60;64.10;;;;;;5094244;28;20020;-74
2021/06/27 01:16:14;;;;;;;1.38;1.35;;;23.50;64.40;;;;;;5093878;28;20466;-74
2021/06/27 01:18:39;;;;;;;2.45;1.85;;;23.60;64.00;;;;;;5075640;28;20036;-74
2021/06/27 01:21:10;;;;;;;1.67;1.58;;;23.60;63.60;;;;;;5074026;28;20435;-74
2021/06/27 01:23:37;;;;;;;3.20;1.40;;;23.60;63.10;;;;;;5093821;28;20031;-74
2021/06/27 01:26:02;;;;;;;1.45;1.35;;;23.70;62.30;;;;;;5093741;28;20103;-73
2021/06/27 01:28:28;;;;;;;1.50;1.40;;;23.80;62.00;;;;;;5093728;28;20103;-74
2021/06/27 01:30:54;;;;;;;1.60;1.50;;;23.80;62.00;;;;;;5093550;28;20048;-74
2021/06/27 01:33:21;;;;;;;1.35;1.25;;;23.80;61.70;;;;;;5093921;28;20111;-74
2021/06/27 01:35:49;;;;;;;0.98;0.98;;;23.90;61.90;;;;;;5093792;28;20055;-74
2021/06/27 01:38:17;;;;;;;1.55;1.10;;;23.80;61.70;;;;;;5075411;28;20030;-74
2021/06/27 01:40:43;;;;;;;1.30;1.10;;;23.80;61.80;;;;;;5093496;28;20024;-74
2021/06/27 01:43:19;;;;;;;3.03;1.40;;;23.70;61.70;;;;;;5075436;28;20022;-74
2021/06/27 01:45:52;;;;;;;1.33;1.10;;;23.70;61.70;;;;;;5093572;28;20031;-74
2021/06/27 01:48:18;;;;;;;1.27;1.27;;;23.70;61.80;;;;;;5092392;28;20031;-74
2021/06/27 01:50:49;;;;;;;4.20;1.40;;;23.60;61.60;;;;;;5074918;28;20028;-73
2021/06/27 01:53:18;;;;;;;1.80;1.00;;;23.70;61.50;;;;;;5075100;28;20114;-73
2021/06/27 01:55:45;;;;;;;1.02;1.02;;;23.70;61.20;;;;;;5092522;28;20027;-74
2021/06/27 01:58:11;;;;;;;1.27;1.27;;;23.80;61.10;;;;;;5092876;28;20027;-74
2021/06/27 02:00:37;;;;;;;6.97;1.50;;;23.80;61.40;;;;;;5093286;28;20077;-74
2021/06/27 02:03:03;;;;;;;1.33;1.20;;;23.80;61.00;;;;;;5074947;28;20382;-74
2021/06/27 02:05:30;;;;;;;1.40;1.30;;;23.80;60.50;;;;;;5093200;28;20035;-74
2021/06/27 02:07:58;;;;;;;0.90;0.90;;;23.80;60.60;;;;;;5074971;28;20119;-74
2021/06/27 02:10:27;;;;;;;1.08;1.02;;;23.80;60.30;;;;;;5093058;28;20140;-74
2021/06/27 02:12:55;;;;;;;1.70;1.10;;;23.80;60.60;;;;;;5093050;28;20044;-74
2021/06/27 02:15:21;;;;;;;1.00;1.00;;;23.80;60.70;;;;;;5093007;28;20028;-74
2021/06/27 02:18:13;;;;;;;1.27;1.27;;;23.80;59.90;;;;;;5092903;28;20347;-74
2021/06/27 02:20:39;;;;;;;4.00;1.13;;;23.70;60.10;;;;;;5092597;28;20028;-74
2021/06/27 02:23:04;;;;;;;1.30;1.20;;;23.80;60.00;;;;;;5093063;28;20142;-74
2021/06/27 02:25:30;;;;;;;0.90;0.90;;;23.70;59.90;;;;;;5092955;28;20024;-74
2021/06/27 02:27:56;;;;;;;1.00;1.00;;;23.70;59.80;;;;;;5074209;28;20020;-74
2021/06/27 02:30:22;;;;;;;2.13;0.88;;;23.70;60.00;;;;;;5092490;28;20056;-74
2021/06/27 02:32:48;;;;;;;3.55;1.20;;;23.70;60.10;;;;;;5092760;28;20036;-74
2021/06/27 02:35:14;;;;;;;0.90;0.90;;;23.70;60.40;;;;;;5092837;28;20024;-74
2021/06/27 02:37:42;;;;;;;0.95;0.95;;;23.70;60.00;;;;;;5092624;28;20462;-74
2021/06/27 02:40:11;;;;;;;5.88;1.10;;;23.60;59.90;;;;;;5092819;28;20028;-75
2021/06/27 02:42:37;;;;;;;2.92;1.33;;;23.60;59.90;;;;;;5092576;28;20024;-74
2021/06/27 02:45:06;;;;;;;1.10;1.10;;;23.60;60.10;;;;;;5092547;28;20025;-74
2021/06/27 02:47:32;;;;;;;1.52;0.90;;;23.60;60.10;;;;;;5092802;28;20020;-74
2021/06/27 02:49:58;;;;;;;2.38;1.23;;;23.50;60.10;;;;;;5092223;28;20030;-74
2021/06/27 02:52:24;;;;;;;0.88;0.88;;;23.50;60.40;;;;;;5092531;28;20115;-74
2021/06/27 02:54:50;;;;;;;1.58;1.48;;;23.50;60.40;;;;;;5092620;28;20040;-74
2021/06/27 02:57:15;;;;;;;4.10;1.17;;;23.50;60.40;;;;;;5092567;28;20077;-74
2021/06/27 02:59:42;;;;;;;0.88;0.88;;;23.50;60.30;;;;;;5093326;28;20374;-74
2021/06/27 03:02:07;;;;;;;1.00;1.00;;;23.60;59.70;;;;;;5096956;28;20480;-74
2021/06/27 03:04:33;;;;;;;1.30;1.20;;;23.60;59.60;;;;;;5096467;28;20024;-74
2021/06/27 03:06:59;;;;;;;2.08;1.10;;;23.60;59.60;;;;;;5096750;28;20176;-74
2021/06/27 03:09:25;;;;;;;1.15;0.90;;;23.60;59.40;;;;;;5096347;28;20028;-74
2021/06/27 03:11:50;;;;;;;1.75;1.38;;;23.60;59.40;;;;;;5096136;28;20070;-74
2021/06/27 03:14:16;;;;;;;1.70;0.90;;;23.60;59.80;;;;;;5096447;28;20066;-74
2021/06/27 03:16:42;;;;;;;1.27;1.00;;;23.70;59.70;;;;;;5078061;28;20039;-73
2021/06/27 03:19:13;;;;;;;0.98;0.98;;;23.70;59.40;;;;;;5095968;28;20032;-73
2021/06/27 03:21:39;;;;;;;1.05;1.00;;;23.70;59.50;;;;;;5094378;28;20039;-74
2021/06/27 03:24:05;;;;;;;2.88;1.80;;;23.70;59.00;;;;;;5075832;28;20101;-74
2021/06/27 03:26:30;;;;;;;1.48;1.40;;;23.60;59.50;;;;;;5076059;28;20366;-74
2021/06/27 03:28:56;;;;;;;1.30;1.20;;;23.60;59.10;;;;;;5074630;28;20048;-74
2021/06/27 03:31:23;;;;;;;2.45;1.65;;;23.60;59.10;;;;;;5096078;28;20034;-74
2021/06/27 03:33:50;;;;;;;4.28;3.28;;;23.60;59.40;;;;;;5095889;28;20103;-74
2021/06/27 03:36:16;;;;;;;1.70;1.60;;;23.50;60.00;;;;;;5095942;28;20023;-74
2021/06/27 03:41:08;;;;;;;2.78;2.58;;;23.30;60.60;;;;;;5095827;28;20481;-74
2021/06/27 03:43:34;;;;;;;2.30;1.70;;;23.30;60.60;;;;;;5077673;28;20020;-74
2021/06/27 03:46:00;;;;;;;1.30;1.20;;;23.30;60.80;;;;;;5095767;28;20027;-74
2021/06/27 03:48:25;;;;;;;7.53;1.30;;;23.20;61.30;;;;;;5077413;28;20031;-74
2021/06/27 03:50:51;;;;;;;4.15;1.50;;;23.20;61.20;;;;;;5095901;28;20036;-74
2021/06/27 03:53:17;;;;;;;1.10;1.10;;;23.20;61.20;;;;;;5095659;28;20024;-74
2021/06/27 03:55:43;;;;;;;1.77;1.48;;;23.20;61.20;;;;;;5095565;28;20488;-74
2021/06/27 03:58:08;;;;;;;1.20;1.10;;;23.20;61.30;;;;;;5095542;28;20500;-74
2021/06/27 04:00:34;;;;;;;1.40;1.30;;;23.10;61.60;;;;;;5095554;28;20046;-74
2021/06/27 04:03:00;;;;;;;1.02;1.00;;;23.10;61.70;;;;;;5076994;28;20028;-74
2021/06/27 04:05:26;;;;;;;1.17;1.08;;;23.10;62.00;;;;;;5095292;28;20024;-74
2021/06/27 04:07:51;;;;;;;3.45;1.23;;;23.00;62.40;;;;;;5095340;28;20082;-74
2021/06/27 04:10:17;;;;;;;2.25;1.25;;;23.00;62.10;;;;;;5095540;28;20032;-74
2021/06/27 04:12:43;;;;;;;6.20;1.27;;;22.90;63.30;;;;;;5094677;28;20020;-74
2021/06/27 04:15:09;;;;;;;1.17;1.08;;;23.00;62.50;;;;;;5095128;28;20028;-74
2021/06/27 04:17:36;;;;;;;2.38;1.10;;;23.00;62.40;;;;;;5095014;28;20016;-74
2021/06/27 04:20:04;;;;;;;2.13;1.30;;;23.00;62.10;;;;;;5095226;28;20036;-74
2021/06/27 04:22:30;;;;;;;0.93;0.93;;;23.00;62.30;;;;;;5095345;28;20359;-74
2021/06/27 04:24:56;;;;;;;1.42;1.33;;;23.00;62.50;;;;;;5076905;28;20078;-74
2021/06/27 04:27:22;;;;;;;3.17;1.20;;;23.00;62.30;;;;;;5095153;28;20370;-74
2021/06/27 04:29:47;;;;;;;1.00;1.00;;;23.00;62.40;;;;;;5094622;28;20406;-74
2021/06/27 04:32:13;;;;;;;3.75;1.10;;;23.00;62.60;;;;;;5094836;28;20028;-74
2021/06/27 04:34:39;;;;;;;1.10;1.10;;;23.00;62.60;;;;;;5094997;28;20062;-74
2021/06/27 04:37:05;;;;;;;0.85;0.85;;;23.10;62.70;;;;;;5094566;28;20461;-73
2021/06/27 04:39:31;;;;;;;1.40;1.30;;;23.10;62.10;;;;;;5094441;28;20028;-74
2021/06/27 04:41:56;;;;;;;1.13;1.00;;;23.20;62.10;;;;;;5094672;28;20051;-74
2021/06/27 04:44:23;;;;;;;2.45;1.08;;;23.20;62.20;;;;;;5094959;28;20035;-74
2021/06/27 04:46:48;;;;;;;1.08;1.02;;;23.30;62.00;;;;;;5076421;28;20039;-74
2021/06/27 04:49:14;;;;;;;0.90;0.90;;;23.30;61.80;;;;;;5094786;28;20017;-74
2021/06/27 04:51:40;;;;;;;3.42;1.00;;;23.30;61.70;;;;;;5094847;28;20382;-73
2021/06/27 04:54:06;;;;;;;2.22;1.17;;;23.30;61.30;;;;;;5094584;28;20056;-73
2021/06/27 04:56:32;;;;;;;2.60;1.05;;;23.40;61.40;;;;;;5094148;28;20024;-74
2021/06/27 04:58:57;;;;;;;0.85;0.85;;;23.50;62.10;;;;;;5093074;28;20085;-74
2021/06/27 05:01:23;;;;;;;0.80;0.80;;;23.50;61.20;;;;;;5092697;28;20027;-74
2021/06/27 05:03:49;;;;;;;0.75;0.75;;;23.60;61.20;;;;;;5092853;28;20029;-74
2021/06/27 05:06:14;;;;;;;1.10;1.00;;;23.60;60.70;;;;;;5074758;28;20056;-74
2021/06/27 05:08:40;;;;;;;1.42;1.27;;;23.60;60.70;;;;;;5092779;28;20489;-74
2021/06/27 05:11:06;;;;;;;0.70;0.70;;;23.70;60.80;;;;;;5092964;28;20036;-74
2021/06/27 05:13:32;;;;;;;2.40;1.25;;;23.70;60.70;;;;;;5093624;28;20032;-74
2021/06/27 05:15:58;;;;;;;0.60;0.60;;;23.80;60.60;;;;;;5075737;28;20062;-74
2021/06/27 05:18:23;;;;;;;6.30;1.02;;;23.80;60.70;;;;;;5093903;28;20020;-74
2021/06/27 05:20:50;;;;;;;4.00;0.90;;;23.80;60.50;;;;;;5075665;28;20016;-73
2021/06/27 05:23:16;;;;;;;0.93;0.90;;;23.90;61.10;;;;;;5092904;28;20024;-73
2021/06/27 05:25:42;;;;;;;0.82;0.82;;;23.90;60.80;;;;;;5093568;28;20119;-73
2021/06/27 05:28:08;;;;;;;0.95;0.95;;;24.00;60.90;;;;;;5093485;28;20058;-74
2021/06/27 05:30:34;;;;;;;1.02;0.90;;;24.10;60.80;;;;;;5090927;28;20048;-74
2021/06/27 05:33:01;;;;;;;0.95;0.95;;;24.10;60.20;;;;;;5093563;28;20339;-74
2021/06/27 05:35:27;;;;;;;0.93;0.90;;;24.20;60.50;;;;;;5075224;28;20028;-74
2021/06/27 05:37:53;;;;;;;0.77;0.77;;;24.30;60.20;;;;;;5093618;28;20077;-74
2021/06/27 05:40:19;;;;;;;3.00;1.27;;;24.30;60.10;;;;;;5093571;28;20095;-74
2021/06/27 05:42:46;;;;;;;1.23;0.88;;;24.40;60.30;;;;;;5093557;28;20367;-74
2021/06/27 05:45:12;;;;;;;2.50;0.70;;;24.40;60.50;;;;;;5074628;28;20118;-74
2021/06/27 05:47:38;;;;;;;0.88;0.88;;;24.50;61.30;;;;;;5075147;28;20173;-74
2021/06/27 05:50:04;;;;;;;0.95;0.93;;;24.60;60.30;;;;;;5093606;28;20054;-73
2021/06/27 05:52:30;;;;;;;2.45;1.23;;;24.70;60.00;;;;;;5093362;28;20089;-74
2021/06/27 05:54:56;;;;;;;0.95;0.95;;;24.80;60.10;;;;;;5093308;28;20473;-74
2021/06/27 05:57:22;;;;;;;1.02;1.00;;;24.80;59.60;;;;;;5093273;28;20034;-74
2021/06/27 05:59:48;;;;;;;1.02;1.02;;;24.90;59.20;;;;;;5074927;28;20397;-74
2021/06/27 06:02:14;;;;;;;1.42;1.02;;;24.90;59.40;;;;;;5093244;28;20016;-73
2021/06/27 06:04:40;;;;;;;0.70;0.70;;;25.00;59.40;;;;;;5093289;28;20031;-74
2021/06/27 06:07:06;;;;;;;0.80;0.80;;;25.10;59.00;;;;;;5092682;28;20039;-74
2021/06/27 06:09:31;;;;;;;2.22;1.15;;;25.10;59.10;;;;;;5092886;28;20031;-73
2021/06/27 06:11:57;;;;;;;0.90;0.90;;;25.10;59.20;;;;;;5074819;28;20024;-74
2021/06/27 06:14:23;;;;;;;0.80;0.80;;;25.10;59.30;;;;;;5092920;28;20491;-74
2021/06/27 06:16:49;;;;;;;0.90;0.90;;;25.20;59.80;;;;;;5093129;28;20016;-73
2021/06/27 06:19:18;;;;;;;1.92;1.13;;;25.30;59.30;;;;;;5092931;28;20020;-74
2021/06/27 06:21:45;;;;;;;1.38;1.27;;;25.40;59.20;;;;;;5074814;28;20352;-74
2021/06/27 06:24:11;;;;;;;1.50;0.88;;;25.50;59.30;;;;;;5092759;28;20012;-74
2021/06/27 06:26:37;;;;;;;1.95;1.10;;;25.50;59.00;;;;;;5092925;28;20028;-74
2021/06/27 06:29:04;;;;;;;1.60;0.88;;;25.50;59.70;;;;;;5092740;28;20055;-73
2021/06/27 06:31:30;;;;;;;0.90;0.85;;;25.60;59.50;;;;;;5074629;28;20028;-74
2021/06/27 06:33:55;;;;;;;1.10;1.00;;;25.60;59.30;;;;;;5092704;28;20565;-74
2021/06/27 06:36:21;;;;;;;0.80;0.80;;;25.70;59.10;;;;;;5092608;28;20081;-74
2021/06/27 06:38:47;;;;;;;1.73;0.80;;;25.70;58.70;;;;;;5092766;28;20412;-74
2021/06/27 06:41:13;;;;;;;0.93;0.93;;;25.70;58.30;;;;;;5092965;28;20020;-74
2021/06/27 06:43:38;;;;;;;1.00;0.88;;;25.70;58.90;;;;;;5093019;28;20023;-74
2021/06/27 06:46:04;;;;;;;1.67;0.80;;;25.80;57.90;;;;;;5092773;28;20069;-74
2021/06/27 06:48:30;;;;;;;0.65;0.63;;;25.80;58.70;;;;;;5092633;28;20482;-74
2021/06/27 06:50:56;;;;;;;0.93;0.93;;;25.90;58.50;;;;;;5092499;28;20089;-74
2021/06/27 06:53:21;;;;;;;3.90;1.15;;;25.90;58.60;;;;;;5092583;28;20048;-74
2021/06/27 06:55:47;;;;;;;0.85;0.85;;;26.00;58.60;;;;;;5074425;28;20019;-74
2021/06/27 06:58:13;;;;;;;0.90;0.90;;;26.00;58.50;;;;;;5092597;28;20020;-73
2021/06/27 07:00:39;;;;;;;3.63;1.23;;;26.00;58.50;;;;;;5092357;28;20056;-73
2021/06/27 07:03:05;;;;;;;0.90;0.90;;;26.00;58.50;;;;;;5092404;28;20025;-74
2021/06/27 07:05:31;;;;;;;0.70;0.70;;;26.10;59.10;;;;;;5092602;28;20024;-74
2021/06/27 07:07:57;;;;;;;1.55;0.70;;;26.10;58.60;;;;;;5092203;28;20565;-74
2021/06/27 07:10:22;;;;;;;1.20;1.10;;;26.20;59.00;;;;;;5092543;28;20105;-74
2021/06/27 07:12:48;;;;;;;0.80;0.80;;;26.30;59.10;;;;;;5092463;28;20048;-74
2021/06/27 07:15:15;;;;;;;3.28;0.98;;;26.30;58.60;;;;;;5074071;28;20081;-73
2021/06/27 07:17:42;;;;;;;1.08;0.80;;;26.40;59.20;;;;;;5087914;28;20025;-74
2021/06/27 07:20:10;;;;;;;0.80;0.80;;;26.50;57.80;;;;;;5072616;28;20074;-74
2021/06/27 07:22:36;;;;;;;2.28;0.90;;;26.50;57.60;;;;;;5084895;28;20013;-73
2021/06/27 07:25:04;;;;;;;1.05;0.90;;;26.50;57.60;;;;;;5071165;28;20089;-74
2021/06/27 07:27:29;;;;;;;2.58;0.90;;;26.60;57.80;;;;;;5090079;28;20093;-74
2021/06/27 07:29:55;;;;;;;1.20;1.10;;;26.60;57.70;;;;;;5090721;28;20590;-74
2021/06/27 07:32:21;;;;;;;1.65;1.10;;;26.60;58.10;;;;;;5091055;28;20028;-74
2021/06/27 07:34:47;;;;;;;0.93;0.93;;;26.70;58.20;;;;;;5091690;28;20028;-74
2021/06/27 07:37:13;;;;;;;1.08;0.98;;;26.80;60.20;;;;;;5073465;28;20363;-74
2021/06/27 07:39:38;;;;;;;1.17;1.10;;;26.80;60.70;;;;;;5091739;28;20104;-74
2021/06/27 07:42:05;;;;;;;0.85;0.85;;;26.80;59.10;;;;;;5091697;28;20367;-73
2021/06/27 07:44:30;;;;;;;1.02;1.02;;;26.80;58.20;;;;;;5091707;28;20050;-74
2021/06/27 07:46:56;;;;;;;1.70;1.00;;;26.90;58.00;;;;;;5092824;28;20028;-74
2021/06/27 07:49:25;;;;;;;1.98;1.10;;;26.90;57.50;;;;;;5076564;28;20054;-74
2021/06/27 07:51:51;;;;;;;3.35;1.10;;;27.00;58.40;;;;;;5095100;28;20024;-74
2021/06/27 07:54:17;;;;;;;2.38;1.52;;;26.90;58.50;;;;;;5094366;28;20512;-74
2021/06/27 07:56:42;;;;;;;2.13;1.10;;;26.90;57.60;;;;;;5089284;28;20021;-73
2021/06/27 07:59:09;;;;;;;1.15;0.95;;;26.90;57.60;;;;;;5060209;28;20036;-73
2021/06/27 08:01:35;;;;;;;1.08;1.08;;;26.90;58.00;;;;;;5094839;28;20020;-73
2021/06/27 08:04:01;;;;;;;3.10;1.40;;;27.00;58.60;;;;;;5077409;28;20030;-73
2021/06/27 08:06:27;;;;;;;1.95;1.30;;;27.00;58.20;;;;;;5095005;28;20035;-72
2021/06/27 08:08:52;;;;;;;1.00;1.00;;;26.90;58.20;;;;;;5094570;28;20024;-73
2021/06/27 08:11:19;;;;;;;2.55;1.15;;;26.90;57.90;;;;;;5095105;28;20028;-74
2021/06/27 08:13:45;;;;;;;4.53;1.20;;;26.90;55.50;;;;;;5076539;28;20066;-74
2021/06/27 08:16:11;;;;;;;1.05;1.05;;;27.00;56.00;;;;;;5093325;28;20055;-74
2021/06/27 08:18:37;;;;;;;2.33;0.85;;;27.00;57.20;;;;;;5092984;28;20085;-74
2021/06/27 08:21:03;;;;;;;4.25;1.10;;;27.10;57.60;;;;;;5092789;28;20421;-74
2021/06/27 08:23:28;;;;;;;2.00;1.25;;;27.20;56.90;;;;;;5093216;28;20020;-74
2021/06/27 08:25:54;;;;;;;3.17;1.92;;;27.20;55.00;;;;;;5092988;28;20428;-74
2021/06/27 08:28:20;;;;;;;1.17;0.90;;;27.20;55.60;;;;;;5092740;28;20027;-74
2021/06/27 08:30:46;;;;;;;2.60;1.40;;;27.20;55.90;;;;;;5093646;28;20044;-74
2021/06/27 08:33:12;;;;;;;2.35;1.23;;;27.30;56.60;;;;;;5093849;28;20063;-74
2021/06/27 08:35:38;;;;;;;2.90;1.25;;;27.30;58.10;;;;;;5094868;28;20024;-73
2021/06/27 08:38:04;;;;;;;2.75;1.55;;;27.30;56.90;;;;;;5094734;28;20062;-73
2021/06/27 08:40:30;;;;;;;2.38;1.50;;;27.30;56.10;;;;;;5094781;28;20011;-74
2021/06/27 08:42:56;;;;;;;4.07;1.45;;;27.30;55.00;;;;;;5094667;28;20024;-73
2021/06/27 08:45:23;;;;;;;2.00;1.55;;;27.30;55.60;;;;;;5076078;28;20080;-73
2021/06/27 08:47:52;;;;;;;4.80;1.63;;;27.30;55.90;;;;;;5094449;28;20051;-74
2021/06/27 08:50:20;;;;;;;3.65;1.30;;;27.40;56.70;;;;;;5094487;28;20474;-74
2021/06/27 08:52:46;;;;;;;3.45;2.20;;;27.50;56.30;;;;;;5076283;28;20036;-74
2021/06/27 08:55:14;;;;;;;4.03;2.47;;;27.60;56.70;;;;;;5094418;28;20058;-74
2021/06/27 08:57:40;;;;;;;5.20;2.78;;;27.70;55.30;;;;;;5094176;28;20020;-73
2021/06/27 09:00:08;;;;;;;5.40;2.63;;;27.70;56.80;;;;;;5094410;28;20355;-74
2021/06/27 09:02:34;;;;;;;2.05;1.95;;;27.70;56.60;;;;;;5094457;28;20537;-74
2021/06/27 09:05:00;;;;;;;5.05;2.50;;;27.80;57.50;;;;;;5094300;28;20095;-73
2021/06/27 09:07:34;;;;;;;3.20;1.92;;;27.90;58.20;;;;;;5094246;28;20022;-73
2021/06/27 09:10:10;;;;;;;4.30;1.90;;;27.90;57.70;;;;;;5094247;28;20034;-74
2021/06/27 09:12:55;;;;;;;5.97;2.78;;;27.90;56.70;;;;;;5094215;28;20035;-74
2021/06/27 09:15:47;;;;;;;4.43;1.70;;;28.00;56.20;;;;;;5094159;28;20031;-74
2021/06/27 09:18:15;;;;;;;3.20;1.60;;;27.90;54.40;;;;;;5093415;28;20040;-74
2021/06/27 09:20:46;;;;;;;5.55;2.13;;;27.90;53.80;;;;;;5091815;28;20409;-74
2021/06/27 09:23:14;;;;;;;2.58;1.60;;;28.00;55.40;;;;;;5093900;28;20021;-74
2021/06/27 09:25:42;;;;;;;2.20;1.50;;;28.10;55.10;;;;;;5093845;28;20039;-74
2021/06/27 09:28:10;;;;;;;2.97;1.35;;;28.10;54.60;;;;;;5093516;28;20036;-74
2021/06/27 09:30:48;;;;;;;5.22;1.42;;;28.20;54.20;;;;;;5093760;28;20502;-73
2021/06/27 09:33:16;;;;;;;1.27;0.82;;;28.20;53.60;;;;;;5093940;28;20028;-74
2021/06/27 09:35:42;;;;;;;1.15;1.08;;;28.20;53.50;;;;;;5093643;28;20474;-74
2021/06/27 09:38:27;;;;;;;1.55;1.45;;;28.20;54.00;;;;;;5093452;28;20169;-74
2021/06/27 09:41:03;;;;;;;1.40;1.10;;;28.30;56.80;;;;;;5075274;28;20103;-74
2021/06/27 09:43:31;;;;;;;2.38;1.23;;;28.40;56.10;;;;;;5075423;28;20423;-74
2021/06/27 09:46:12;;;;;;;1.27;1.15;;;28.50;56.60;;;;;;5093489;28;20023;-74
2021/06/27 09:49:12;;;;;;;1.45;1.35;;;28.50;54.20;;;;;;5075273;28;20024;-74
2021/06/27 09:51:58;;;;;;;3.28;1.40;;;28.70;52.90;;;;;;5074690;28;20047;-74
2021/06/27 09:54:26;;;;;;;1.42;1.10;;;28.70;54.30;;;;;;5093413;28;20024;-74
2021/06/27 09:56:53;;;;;;;1.20;1.10;;;28.70;51.90;;;;;;5093162;28;20107;-73
2021/06/27 09:59:35;;;;;;;3.72;1.20;;;28.90;53.50;;;;;;5093106;28;20021;-74
2021/06/27 10:02:01;;;;;;;1.88;1.20;;;29.00;53.60;;;;;;5093368;28;20028;-74
2021/06/27 10:04:29;;;;;;;1.42;1.30;;;29.00;54.50;;;;;;5092752;28;20097;-74
2021/06/27 10:06:57;;;;;;;3.15;1.23;;;29.00;52.30;;;;;;5092956;28;20028;-74
2021/06/27 10:09:28;;;;;;;1.65;1.13;;;29.00;50.30;;;;;;5092530;28;20462;-74
2021/06/27 10:12:09;;;;;;;2.25;1.33;;;29.00;50.60;;;;;;5093063;28;20012;-74
2021/06/27 10:14:55;;;;;;;3.30;1.17;;;29.00;51.00;;;;;;5092461;28;20036;-74
2021/06/27 10:17:23;;;;;;;1.50;1.40;;;29.00;50.70;;;;;;5092715;28;20485;-74
2021/06/27 10:19:50;;;;;;;1.50;1.35;;;29.30;52.60;;;;;;5092909;28;20023;-74
2021/06/27 10:22:16;;;;;;;1.77;1.67;;;29.40;53.40;;;;;;5074761;28;20016;-74
2021/06/27 10:24:43;;;;;;;1.88;1.67;;;29.60;53.30;;;;;;5093061;28;20592;-74
2021/06/27 10:27:10;;;;;;;3.53;1.65;;;29.60;51.90;;;;;;5092818;28;20028;-74
2021/06/27 10:29:44;;;;;;;5.20;1.23;;;29.60;50.90;;;;;;5074496;28;20044;-74
2021/06/27 10:32:11;;;;;;;1.42;1.33;;;29.70;50.70;;;;;;5092659;28;20035;-73
2021/06/27 10:34:37;;;;;;;1.75;1.08;;;30.00;51.00;;;;;;5092284;28;20024;-73
2021/06/27 10:37:33;;;;;;;5.30;1.50;;;30.20;50.60;;;;;;5092546;28;20468;-74
2021/06/27 10:40:11;;;;;;;2.92;1.10;;;30.20;49.80;;;;;;5092818;28;20126;-74
2021/06/27 10:42:49;;;;;;;1.42;1.33;;;30.30;50.80;;;;;;5092665;28;20153;-74
2021/06/27 10:45:16;;;;;;;1.02;1.02;;;30.40;50.40;;;;;;5092519;28;20028;-74
2021/06/27 10:47:42;;;;;;;1.30;1.20;;;30.40;51.30;;;;;;5092427;28;20509;-74
2021/06/27 10:50:10;;;;;;;3.35;1.02;;;30.60;52.10;;;;;;5092759;28;20016;-74
2021/06/27 10:52:59;;;;;;;1.40;1.30;;;30.70;51.80;;;;;;5074533;28;20077;-74
2021/06/27 10:56:00;;;;;;;7.45;1.48;;;30.80;51.10;;;;;;5079739;28;20036;-73
2021/06/27 10:58:37;;;;;;;3.72;1.30;;;30.90;50.50;;;;;;5083811;28;20089;-74
2021/06/27 11:01:10;;;;;;;1.90;1.50;;;30.90;50.20;;;;;;5092479;28;20635;-74
2021/06/27 11:03:45;;;;;;;4.60;1.42;;;31.00;50.40;;;;;;5074367;28;20111;-74
2021/06/27 11:06:17;;;;;;;1.35;1.25;;;31.10;50.60;;;;;;5074347;28;20485;-74
2021/06/27 11:08:48;;;;;;;5.10;1.38;;;31.10;49.60;;;;;;5092093;28;20377;-74
2021/06/27 11:11:20;;;;;;;2.95;1.42;;;31.20;51.30;;;;;;5092366;28;20024;-73
2021/06/27 11:14:11;;;;;;;5.13;1.20;;;31.30;49.80;;;;;;5092387;28;20374;-74
2021/06/27 11:17:06;;;;;;;4.13;1.30;;;31.30;49.30;;;;;;5074212;28;20032;-74
2021/06/27 11:19:38;;;;;;;2.38;1.30;;;31.20;48.40;;;;;;5070307;28;20029;-74
2021/06/27 11:22:13;;;;;;;1.20;1.10;;;31.30;48.60;;;;;;5095556;28;20027;-74
2021/06/27 11:24:39;;;;;;;2.22;1.20;;;31.10;49.50;;;;;;5096203;28;20444;-74
2021/06/27 11:27:05;;;;;;;2.58;1.40;;;30.80;47.80;;;;;;5095955;28;20063;-74
2021/06/27 11:29:31;;;;;;;1.63;1.35;;;30.60;48.70;;;;;;5096257;28;20059;-74
2021/06/27 11:32:09;;;;;;;3.13;1.10;;;30.40;49.10;;;;;;5096156;28;20020;-74
2021/06/27 11:34:36;;;;;;;1.23;1.13;;;30.30;50.30;;;;;;5096062;28;20058;-74
2021/06/27 11:37:17;;;;;;;2.03;1.58;;;30.30;51.10;;;;;;5095881;28;20476;-74
2021/06/27 11:39:53;;;;;;;2.47;1.27;;;30.60;50.50;;;;;;5095944;28;20596;-74
2021/06/27 11:42:28;;;;;;;3.20;1.70;;;30.70;48.40;;;;;;5095874;28;20012;-74
2021/06/27 11:45:07;;;;;;;2.22;1.15;;;30.60;48.70;;;;;;5096029;28;20031;-74
2021/06/27 11:47:34;;;;;;;7.57;1.70;;;30.60;50.00;;;;;;5095721;28;20458;-74
2021/06/27 11:50:21;;;;;;;1.13;1.10;;;30.50;49.90;;;;;;5095808;28;20024;-74
2021/06/27 11:53:00;;;;;;;1.27;1.17;;;30.60;50.00;;;;;;5079682;28;20040;-74
2021/06/27 11:55:29;;;;;;;1.60;1.50;;;30.80;50.60;;;;;;5095672;28;20020;-73
2021/06/27 11:57:55;;;;;;;4.15;1.50;;;31.10;50.90;;;;;;5095486;28;20032;-74
2021/06/27 12:00:30;;;;;;;2.58;1.60;;;31.30;49.80;;;;;;5095413;28;20374;-74
2021/06/27 12:03:07;;;;;;;2.63;1.05;;;31.40;49.30;;;;;;5075503;28;20087;-74
2021/06/27 12:05:32;;;;;;;3.65;1.17;;;31.40;48.00;;;;;;5077081;28;20500;-74
2021/06/27 12:08:10;;;;;;;2.40;1.45;;;31.50;48.60;;;;;;5094537;28;20024;-74
2021/06/27 12:10:38;;;;;;;1.35;1.23;;;31.60;47.50;;;;;;5095098;28;20039;-74
2021/06/27 12:13:10;;;;;;;2.17;1.20;;;31.70;46.50;;;;;;5070107;28;20020;-73
2021/06/27 12:15:41;;;;;;;1.75;1.48;;;31.80;47.10;;;;;;5095093;28;20059;-74
2021/06/27 12:18:13;;;;;;;1.05;1.05;;;32.00;46.90;;;;;;5094897;28;20023;-74
2021/06/27 12:20:47;;;;;;;1.13;1.13;;;32.00;45.40;;;;;;5095153;28;20047;-74
2021/06/27 12:23:18;;;;;;;6.47;1.30;;;31.90;45.10;;;;;;5094826;28;20024;-74
2021/06/27 12:25:44;;;;;;;;;;;32.00;45.10;;;;;;5095356;28;20028;-74
2021/06/27 12:28:13;;;;;;;2.15;1.30;;;32.10;45.90;;;;;;5094749;28;19958;-74
2021/06/27 12:30:53;;;;;;;1.83;1.20;;;32.30;45.70;;;;;;5094730;28;20436;-74
2021/06/27 12:33:21;;;;;;;2.55;1.40;;;32.40;44.60;;;;;;5094478;28;20123;-74
2021/06/27 12:35:50;;;;;;;3.25;1.10;;;32.50;43.80;;;;;;5094585;28;20028;-74
2021/06/27 12:38:16;;;;;;;1.20;1.10;;;32.50;43.50;;;;;;5094660;28;20470;-74
2021/06/27 12:40:53;;;;;;;3.22;1.30;;;32.70;44.90;;;;;;5094506;28;20023;-74
2021/06/27 12:43:21;;;;;;;1.27;1.20;;;32.80;42.10;;;;;;5094759;28;20363;-74
2021/06/27 12:46:11;;;;;;;1.02;1.02;;;32.90;43.60;;;;;;5094815;28;20034;-74
2021/06/27 12:48:37;;;;;;;1.08;1.08;;;33.00;43.00;;;;;;5094674;28;20024;-74
2021/06/27 12:51:04;;;;;;;1.85;1.23;;;33.10;44.70;;;;;;5094490;28;20396;-74
2021/06/27 12:53:30;;;;;;;1.10;1.10;;;33.30;44.90;;;;;;5094278;28;20098;-74
2021/06/27 12:56:08;;;;;;;1.20;1.20;;;33.30;44.30;;;;;;5094361;28;20028;-74